Time;durP1;ratioP1;P1;durP2;ratioP2;P2;SDS_P1;SDS_P2;PMS_P1;PMS_P2;Temp;Humidity;BMP_temperature;BMP_pressure;BME280_temperature;BME280_humidity;BME280_pressure;Samples;Min_cycle;Max_cycle;Signal;HPM_P1;HPM_P2
2023/01/16 00:01:18;;;;;;;2.78;1.10;;;5.00;1.00;;;;;;5027550;28;20060;-77
2023/01/16 00:03:45;;;;;;;4.18;1.00;;;5.00;1.00;;;;;;5029496;28;20041;-78
2023/01/16 00:06:12;;;;;;;4.13;1.10;;;4.90;1.00;;;;;;5025077;28;20041;-79
2023/01/16 00:08:38;;;;;;;4.28;0.80;;;4.80;1.00;;;;;;5043957;28;20041;-78
2023/01/16 00:11:04;;;;;;;5.97;1.17;;;4.90;1.00;;;;;;5046432;28;20044;-79
2023/01/16 00:13:31;;;;;;;2.90;0.80;;;4.80;1.00;;;;;;5016786;28;20071;-78
2023/01/16 00:15:57;;;;;;;2.17;0.63;;;4.80;1.00;;;;;;5053327;28;20044;-78
2023/01/16 00:18:23;;;;;;;5.38;1.33;;;4.80;1.00;;;;;;5088785;28;20063;-78
2023/01/16 00:20:50;;;;;;;6.03;1.02;;;4.70;1.00;;;;;;5089969;28;20484;-78
2023/01/16 00:23:16;;;;;;;5.53;0.98;;;4.70;1.00;;;;;;5101789;28;20055;-78
2023/01/16 00:25:43;;;;;;;4.97;0.73;;;4.60;1.00;;;;;;5095882;28;20032;-78
2023/01/16 00:28:12;;;;;;;5.00;0.70;;;4.60;1.00;;;;;;5089453;28;20039;-78
2023/01/16 00:30:39;;;;;;;2.13;0.60;;;4.60;1.00;;;;;;5077038;28;20393;-77
2023/01/16 00:33:05;;;;;;;2.75;0.75;;;4.60;1.00;;;;;;5081708;28;20032;-77
2023/01/16 00:35:33;;;;;;;7.03;1.80;;;4.60;1.00;;;;;;5089600;28;20052;-77
2023/01/16 00:37:59;;;;;;;2.67;0.75;;;4.50;1.00;;;;;;5090001;28;20040;-76
2023/01/16 00:40:25;;;;;;;2.55;0.80;;;4.50;1.00;;;;;;5082789;28;20381;-77
2023/01/16 00:42:52;;;;;;;3.22;1.10;;;4.50;1.00;;;;;;5066116;28;20032;-77
2023/01/16 00:45:18;;;;;;;2.90;0.73;;;4.50;1.00;;;;;;5066435;28;20028;-78
2023/01/16 00:47:44;;;;;;;5.00;1.05;;;4.40;1.00;;;;;;5068598;28;20369;-78
2023/01/16 00:50:11;;;;;;;5.47;0.85;;;4.40;1.00;;;;;;5078011;28;20329;-80
2023/01/16 00:52:37;;;;;;;2.88;0.63;;;4.40;1.00;;;;;;5069220;28;20151;-77
2023/01/16 00:55:04;;;;;;;1.75;0.70;;;4.30;1.00;;;;;;5074401;28;20033;-77
2023/01/16 00:57:30;;;;;;;2.92;0.95;;;4.40;1.00;;;;;;5057248;28;20370;-78
2023/01/16 00:59:56;;;;;;;2.97;1.30;;;4.30;1.00;;;;;;5075643;28;20033;-77
2023/01/16 01:02:22;;;;;;;5.22;0.80;;;4.40;1.00;;;;;;5055879;28;20457;-78
2023/01/16 01:04:48;;;;;;;2.30;0.80;;;4.40;1.00;;;;;;5074780;28;20032;-79
2023/01/16 01:07:15;;;;;;;2.80;0.57;;;4.40;1.00;;;;;;5075053;28;20032;-79
2023/01/16 01:09:41;;;;;;;2.22;0.68;;;4.30;1.00;;;;;;5074287;28;20473;-80
2023/01/16 01:12:07;;;;;;;2.83;1.17;;;4.30;1.00;;;;;;5074055;28;20035;-79
2023/01/16 01:14:33;;;;;;;4.28;0.85;;;4.30;1.00;;;;;;5072811;28;20044;-82
2023/01/16 01:16:59;;;;;;;3.47;1.25;;;4.40;1.00;;;;;;5085866;28;20409;-80
2023/01/16 01:19:26;;;;;;;3.40;1.15;;;4.20;1.00;;;;;;5055875;28;20391;-81
2023/01/16 01:21:52;;;;;;;4.57;0.73;;;4.20;1.00;;;;;;5055673;28;20032;-80
2023/01/16 01:24:18;;;;;;;2.30;0.60;;;4.10;1.00;;;;;;5035597;28;20045;-80
2023/01/16 01:26:44;;;;;;;4.97;0.80;;;4.10;1.00;;;;;;5054041;28;20032;-81
2023/01/16 01:29:10;;;;;;;1.95;0.85;;;4.00;1.00;;;;;;5073885;28;20020;-81
2023/01/16 01:31:36;;;;;;;2.55;0.82;;;4.00;1.00;;;;;;5072985;28;20115;-80
2023/01/16 01:34:03;;;;;;;1.90;0.70;;;4.10;1.00;;;;;;5035198;28;20390;-79
2023/01/16 01:36:29;;;;;;;2.85;0.65;;;4.00;1.00;;;;;;5054252;28;20044;-81
2023/01/16 01:38:55;;;;;;;4.38;1.33;;;4.10;1.00;;;;;;5054829;28;20032;-79
2023/01/16 01:41:21;;;;;;;5.47;1.20;;;4.10;1.00;;;;;;5038690;28;20366;-81
2023/01/16 01:43:51;;;;;;;2.08;0.80;;;4.20;1.00;;;;;;5036272;28;20371;-79
2023/01/16 01:46:17;;;;;;;3.55;0.85;;;4.20;1.00;;;;;;5056765;28;20051;-79
2023/01/16 01:48:43;;;;;;;4.78;1.00;;;4.30;1.00;;;;;;5054685;28;20408;-79
2023/01/16 01:51:17;;;;;;;2.05;0.65;;;4.20;1.00;;;;;;5055785;28;20040;-79
2023/01/16 01:54:11;;;;;;;1.98;0.90;;;4.10;1.00;;;;;;5071382;28;20036;-80
2023/01/16 01:57:02;;;;;;;4.30;1.27;;;4.10;1.00;;;;;;5053835;28;20048;-79
2023/01/16 01:59:34;;;;;;;4.78;1.10;;;4.20;1.00;;;;;;5062568;28;20056;-78
2023/01/16 02:02:03;;;;;;;4.78;0.77;;;4.20;1.00;;;;;;5072600;28;20037;-80
2023/01/16 02:04:34;;;;;;;3.45;0.73;;;4.20;1.00;;;;;;5038492;28;20044;-79
2023/01/16 02:07:05;;;;;;;;;;;4.30;1.00;;;;;;5057078;28;20048;-78
2023/01/16 02:09:32;;;;;;;;;;;4.30;1.00;;;;;;5055077;28;19909;-77
2023/01/16 02:12:06;;;;;;;4.47;0.90;;;4.30;1.00;;;;;;5054348;28;19923;-80
2023/01/16 02:14:36;;;;;;;1.92;0.68;;;4.40;1.00;;;;;;5053879;28;20047;-81
2023/01/16 02:20:24;;;;;;;1.95;0.70;;;4.40;1.00;;;;;;5073746;28;20035;-77
2023/01/16 02:23:29;;;;;;;1.02;0.40;;;4.40;1.00;;;;;;5072478;28;20041;-78
2023/01/16 02:26:16;;;;;;;2.92;0.68;;;4.50;1.00;;;;;;5069023;28;20103;-77
2023/01/16 02:29:29;;;;;;;3.38;0.75;;;4.50;1.00;;;;;;5078180;28;20028;-78
2023/01/16 02:32:17;;;;;;;5.90;0.70;;;4.50;1.00;;;;;;5092447;28;20043;-80
2023/01/16 02:35:08;;;;;;;0.82;0.40;;;4.50;1.00;;;;;;5092598;28;20035;-78
2023/01/16 02:37:53;;;;;;;2.50;0.85;;;4.50;1.00;;;;;;5071816;28;20401;-79
2023/01/16 02:40:38;;;;;;;2.70;0.70;;;4.50;1.00;;;;;;5072120;28;20052;-78
2023/01/16 02:43:26;;;;;;;2.08;0.82;;;4.40;1.00;;;;;;5072014;28;20477;-79
2023/01/16 02:46:01;;;;;;;2.80;1.52;;;4.30;1.00;;;;;;5088664;28;20473;-79
2023/01/16 02:48:54;;;;;;;2.92;1.05;;;4.30;1.00;;;;;;5090140;28;20052;-80
2023/01/16 02:51:25;;;;;;;2.95;0.90;;;4.30;1.00;;;;;;5072900;28;20029;-79
2023/01/16 02:54:24;;;;;;;3.22;0.73;;;4.40;1.00;;;;;;5071051;28;20033;-78
2023/01/16 02:57:09;;;;;;;3.13;0.45;;;4.50;1.00;;;;;;5071970;28;20044;-80
2023/01/16 02:59:35;;;;;;;3.72;0.60;;;4.50;1.00;;;;;;5081637;28;20066;-82
2023/01/16 03:02:02;;;;;;;4.82;0.70;;;4.50;1.00;;;;;;5071206;28;20054;-81
2023/01/16 03:04:49;;;;;;;3.35;0.80;;;4.50;1.00;;;;;;5087665;28;20042;-83
2023/01/16 03:07:43;;;;;;;3.47;1.10;;;4.50;1.00;;;;;;5092499;28;20032;-81
2023/01/16 03:10:18;;;;;;;3.78;0.50;;;4.60;1.00;;;;;;5091040;28;20032;-81
2023/01/16 03:13:04;;;;;;;1.52;0.60;;;4.60;1.00;;;;;;5090911;28;20040;-79
2023/01/16 03:15:54;;;;;;;3.75;0.75;;;4.60;1.00;;;;;;5071631;28;20047;-77
2023/01/16 03:18:59;;;;;;;2.15;0.63;;;4.60;1.00;;;;;;5077857;28;20381;-77
2023/01/16 03:21:42;;;;;;;2.65;0.63;;;4.60;1.00;;;;;;5085952;28;20035;-78
2023/01/16 03:24:36;;;;;;;7.82;0.90;;;4.60;1.00;;;;;;5083578;28;20051;-77
2023/01/16 03:27:11;;;;;;;2.95;0.90;;;4.50;1.00;;;;;;5091146;28;20036;-79
2023/01/16 03:30:13;;;;;;;2.85;0.75;;;4.50;1.00;;;;;;5090094;28;20381;-78
2023/01/16 03:32:55;;;;;;;2.22;0.60;;;4.50;1.00;;;;;;5082678;28;20051;-80
2023/01/16 03:35:54;;;;;;;3.33;0.80;;;4.60;1.00;;;;;;5071045;28;20042;-78
2023/01/16 03:38:24;;;;;;;2.63;0.52;;;4.60;1.00;;;;;;5070829;28;20051;-79
2023/01/16 03:40:51;;;;;;;2.13;0.75;;;4.60;1.00;;;;;;5090095;28;20044;-79
2023/01/16 03:43:26;;;;;;;2.80;1.50;;;4.50;1.00;;;;;;5090037;28;20471;-79
2023/01/16 03:45:58;;;;;;;2.80;0.70;;;4.30;1.00;;;;;;5090375;28;20039;-78
2023/01/16 03:48:29;;;;;;;4.05;1.05;;;4.40;1.00;;;;;;5091609;28;20028;-80
2023/01/16 03:51:02;;;;;;;4.05;1.05;;;4.40;1.00;;;;;;5090152;28;20040;-79
2023/01/16 03:53:38;;;;;;;3.55;0.75;;;4.40;1.00;;;;;;5079556;28;20063;-81
2023/01/16 03:56:04;;;;;;;2.35;0.60;;;4.40;1.00;;;;;;5070905;28;20481;-78
2023/01/16 03:58:36;;;;;;;4.10;0.90;;;4.40;1.00;;;;;;5070078;28;20473;-78
2023/01/16 04:01:31;;;;;;;2.15;0.63;;;4.30;1.00;;;;;;5091624;28;20029;-78
2023/01/16 04:04:02;;;;;;;3.92;0.90;;;4.10;1.00;;;;;;5082417;28;20044;-77
2023/01/16 04:06:53;;;;;;;4.38;0.68;;;4.10;1.00;;;;;;5084531;28;20031;-79
2023/01/16 04:09:33;;;;;;;4.72;1.23;;;4.00;1.00;;;;;;5090904;28;20051;-78
2023/01/16 04:12:01;;;;;;;4.35;0.90;;;4.00;1.00;;;;;;5091569;28;20040;-77
2023/01/16 04:14:31;;;;;;;3.35;0.73;;;4.00;1.00;;;;;;5091425;28;20373;-76
2023/01/16 04:16:58;;;;;;;4.07;0.80;;;4.00;1.00;;;;;;5080080;28;20048;-77
2023/01/16 04:19:26;;;;;;;1.00;0.50;;;4.10;1.00;;;;;;5035224;28;20052;-77
2023/01/16 04:21:52;;;;;;;4.53;1.35;;;4.20;1.00;;;;;;5034442;28;20052;-77
2023/01/16 04:24:19;;;;;;;4.85;0.82;;;4.20;1.00;;;;;;5050131;28;20048;-76
2023/01/16 04:26:45;;;;;;;5.45;1.67;;;4.10;1.00;;;;;;5051648;28;20035;-77
2023/01/16 04:29:11;;;;;;;7.20;1.00;;;4.20;1.00;;;;;;5056621;28;20024;-78
2023/01/16 04:31:38;;;;;;;3.72;1.13;;;4.20;1.00;;;;;;5056398;28;20036;-78
2023/01/16 04:34:04;;;;;;;4.65;0.70;;;4.10;1.00;;;;;;5056915;28;20032;-78
2023/01/16 04:36:31;;;;;;;3.78;0.68;;;4.00;1.00;;;;;;5059759;28;20044;-80
2023/01/16 04:38:57;;;;;;;2.83;0.60;;;3.80;1.00;;;;;;5038164;28;20059;-77
2023/01/16 04:41:38;;;;;;;2.53;0.88;;;3.70;1.00;;;;;;5061781;28;20029;-77
2023/01/16 04:44:07;;;;;;;7.47;1.98;;;3.70;1.00;;;;;;5056332;28;20518;-78
2023/01/16 04:46:33;;;;;;;5.20;0.95;;;3.60;1.00;;;;;;5054130;28;20029;-78
2023/01/16 04:48:59;;;;;;;2.75;0.75;;;3.50;1.00;;;;;;5048995;28;20051;-77
2023/01/16 04:51:26;;;;;;;3.35;0.57;;;3.60;1.00;;;;;;5058840;28;20044;-78
2023/01/16 04:53:52;;;;;;;1.77;0.52;;;3.70;1.00;;;;;;5071422;28;20033;-79
2023/01/16 04:56:18;;;;;;;1.65;0.50;;;3.80;1.00;;;;;;5041264;28;20020;-79
2023/01/16 04:58:44;;;;;;;4.72;0.73;;;3.80;1.00;;;;;;5058208;28;20033;-76
2023/01/16 05:01:10;;;;;;;0.98;0.43;;;3.90;1.00;;;;;;5071568;28;20047;-76
2023/01/16 05:03:36;;;;;;;5.15;0.85;;;4.10;1.00;;;;;;5069926;28;20386;-79
2023/01/16 05:06:03;;;;;;;2.92;0.75;;;4.10;1.00;;;;;;5037197;28;20478;-80
2023/01/16 05:08:30;;;;;;;1.77;0.60;;;4.10;1.00;;;;;;5021209;28;20045;-78
2023/01/16 05:10:59;;;;;;;3.20;0.90;;;4.20;1.00;;;;;;5043362;28;20478;-78
2023/01/16 05:13:25;;;;;;;3.85;0.85;;;4.30;1.00;;;;;;5066278;28;20493;-79
2023/01/16 05:15:51;;;;;;;4.25;0.90;;;4.40;1.00;;;;;;5052875;28;20048;-81
2023/01/16 05:18:17;;;;;;;3.28;0.77;;;4.30;1.00;;;;;;5066012;28;20052;-79
2023/01/16 05:20:43;;;;;;;3.13;0.80;;;4.40;1.00;;;;;;5060451;28;20033;-80
2023/01/16 05:23:10;;;;;;;10.38;0.60;;;4.40;1.00;;;;;;5048848;28;20055;-79
2023/01/16 05:25:37;;;;;;;8.23;0.90;;;4.40;1.00;;;;;;5052758;28;20100;-79
2023/01/16 05:28:03;;;;;;;3.63;0.52;;;4.30;1.00;;;;;;5068517;28;20039;-79
2023/01/16 05:30:30;;;;;;;3.15;0.63;;;4.30;1.00;;;;;;5068327;28;20331;-78
2023/01/16 05:32:56;;;;;;;3.75;0.40;;;4.30;1.00;;;;;;5073980;28;20162;-82
2023/01/16 05:35:23;;;;;;;2.13;0.65;;;4.30;1.00;;;;;;5074192;28;20029;-81
2023/01/16 05:37:49;;;;;;;3.70;0.63;;;4.40;1.00;;;;;;5055741;28;20044;-82
2023/01/16 05:40:15;;;;;;;8.15;0.88;;;4.40;1.00;;;;;;5052376;28;20033;-83
2023/01/16 05:42:47;;;;;;;2.17;0.68;;;4.40;1.00;;;;;;5036285;28;20048;-82
2023/01/16 05:45:13;;;;;;;6.07;0.40;;;4.50;1.00;;;;;;5067713;28;20047;-82
2023/01/16 05:47:40;;;;;;;3.30;0.68;;;4.50;1.00;;;;;;5067861;28;20036;-81
2023/01/16 05:50:06;;;;;;;3.20;0.38;;;4.50;1.00;;;;;;5054404;28;20032;-82
2023/01/16 05:52:33;;;;;;;1.17;0.50;;;4.50;1.00;;;;;;5055452;28;20043;-82
2023/01/16 05:54:59;;;;;;;0.85;0.40;;;4.50;1.00;;;;;;5039656;28;20041;-82
2023/01/16 05:57:25;;;;;;;4.85;1.85;;;4.60;1.00;;;;;;5056497;28;20028;-83
2023/01/16 05:59:52;;;;;;;3.42;0.70;;;4.60;1.00;;;;;;5043896;28;20033;-81
2023/01/16 06:02:20;;;;;;;4.20;0.65;;;4.60;1.00;;;;;;5061062;28;20466;-82
2023/01/16 06:04:46;;;;;;;1.15;0.35;;;4.70;1.00;;;;;;5041765;28;20032;-84
2023/01/16 06:07:13;;;;;;;2.65;0.73;;;4.70;1.00;;;;;;5049391;28;20051;-80
2023/01/16 06:09:40;;;;;;;3.30;0.52;;;4.70;1.00;;;;;;5050952;28;20044;-81
2023/01/16 06:12:09;;;;;;;2.80;0.40;;;4.80;1.00;;;;;;5063254;28;20354;-80
2023/01/16 06:14:35;;;;;;;3.75;0.60;;;4.80;1.00;;;;;;5050798;28;20328;-84
2023/01/16 06:17:02;;;;;;;4.88;1.00;;;4.80;1.00;;;;;;5066508;28;20053;-83
2023/01/16 06:19:28;;;;;;;2.25;0.40;;;4.80;1.00;;;;;;5036323;28;20056;-81
2023/01/16 06:21:54;;;;;;;5.30;0.50;;;4.70;1.00;;;;;;5055993;28;20055;-83
2023/01/16 06:24:20;;;;;;;2.78;0.60;;;4.60;1.00;;;;;;5051218;28;20036;-82
2023/01/16 06:26:46;;;;;;;2.15;0.60;;;4.50;1.00;;;;;;5066326;28;20029;-81
2023/01/16 06:29:12;;;;;;;3.33;0.80;;;4.60;1.00;;;;;;5044940;28;20037;-82
2023/01/16 06:31:38;;;;;;;1.33;0.60;;;4.60;1.00;;;;;;5047999;28;20040;-83
2023/01/16 06:34:05;;;;;;;1.98;0.60;;;4.60;1.00;;;;;;5072919;28;20389;-82
2023/01/16 06:36:31;;;;;;;2.97;0.50;;;4.50;1.00;;;;;;5065876;28;20041;-85
2023/01/16 06:38:57;;;;;;;4.22;0.90;;;4.50;1.00;;;;;;5048012;28;20386;-83
2023/01/16 06:41:23;;;;;;;3.33;0.60;;;4.50;1.00;;;;;;5055172;28;20033;-82
2023/01/16 06:43:49;;;;;;;2.45;0.40;;;4.40;1.00;;;;;;5041251;28;20040;-83
2023/01/16 06:46:16;;;;;;;2.78;0.43;;;4.40;1.00;;;;;;5072010;28;20040;-84
2023/01/16 06:48:42;;;;;;;1.52;0.40;;;4.40;1.00;;;;;;5057129;28;20446;-83
2023/01/16 06:51:09;;;;;;;4.35;1.30;;;4.50;1.00;;;;;;5054363;28;20466;-83
2023/01/16 06:53:36;;;;;;;2.40;0.63;;;4.50;1.00;;;;;;5023046;28;20049;-84
2023/01/16 06:56:03;;;;;;;4.75;0.85;;;4.50;1.00;;;;;;5042881;28;20470;-83
2023/01/16 06:58:29;;;;;;;2.25;0.60;;;4.50;99.90;;;;;;5072864;28;20025;-84
2023/01/16 07:00:55;;;;;;;1.70;0.40;;;4.50;99.90;;;;;;5055946;28;20652;-84
2023/01/16 07:03:22;;;;;;;2.05;0.43;;;4.50;99.90;;;;;;5053499;28;20044;-84
2023/01/16 07:05:48;;;;;;;3.92;1.30;;;4.50;99.90;;;;;;5041008;28;20045;-83
2023/01/16 07:08:14;;;;;;;2.63;0.60;;;4.50;99.90;;;;;;5019697;28;20064;-86
2023/01/16 07:10:40;;;;;;;4.30;0.40;;;4.60;99.90;;;;;;5059856;28;20037;-84
2023/01/16 07:13:07;;;;;;;1.83;0.40;;;4.60;99.90;;;;;;5037154;28;20063;-83
2023/01/16 07:24:03;;;;;;;2.22;0.80;;;4.60;99.90;;;;;;5086228;28;20028;-85
2023/01/16 07:26:31;;;;;;;2.00;0.80;;;4.60;99.90;;;;;;5101015;28;20047;-84
2023/01/16 07:28:58;;;;;;;1.58;0.52;;;4.60;99.90;;;;;;5086459;28;20397;-82
2023/01/16 07:31:25;;;;;;;4.25;1.15;;;4.70;99.90;;;;;;5089163;28;20038;-83
2023/01/16 07:33:51;;;;;;;1.33;0.47;;;4.70;99.90;;;;;;5098361;28;20051;-84
2023/01/16 07:36:18;;;;;;;2.88;0.70;;;4.80;99.90;;;;;;5090652;28;20032;-83
2023/01/16 07:38:46;;;;;;;4.13;0.63;;;4.90;99.90;;;;;;5089074;28;20293;-83
2023/01/16 07:41:13;;;;;;;2.97;0.40;;;4.90;99.90;;;;;;5082760;28;20056;-81
2023/01/16 07:43:40;;;;;;;1.35;0.40;;;4.90;99.90;;;;;;5087661;28;20044;-81
2023/01/16 07:46:07;;;;;;;2.05;0.52;;;4.90;99.90;;;;;;5085546;28;20036;-83
2023/01/16 07:48:33;;;;;;;1.85;0.82;;;4.90;99.90;;;;;;5082772;28;20044;-84
2023/01/16 07:51:00;;;;;;;3.58;0.40;;;5.00;99.90;;;;;;5079435;28;20028;-83
2023/01/16 07:53:29;;;;;;;1.30;0.47;;;4.90;99.90;;;;;;5078438;28;20051;-82
2023/01/16 07:56:00;;;;;;;2.50;0.55;;;4.90;99.90;;;;;;5082472;28;20036;-82
2023/01/16 07:58:28;;;;;;;0.73;0.30;;;4.90;99.90;;;;;;5079450;28;20032;-82
2023/01/16 08:00:55;;;;;;;4.43;0.70;;;4.80;99.90;;;;;;5073976;28;20047;-83
2023/01/16 08:03:23;;;;;;;0.98;0.40;;;4.70;99.90;;;;;;5079460;28;20028;-81
2023/01/16 08:05:50;;;;;;;2.75;0.45;;;4.70;99.90;;;;;;5076961;28;20048;-84
2023/01/16 08:08:16;;;;;;;0.80;0.40;;;4.80;99.90;;;;;;5084456;28;20047;-82
2023/01/16 08:10:43;;;;;;;1.45;0.47;;;4.80;99.90;;;;;;5084641;28;20457;-84
2023/01/16 08:13:09;;;;;;;2.40;0.50;;;4.80;99.90;;;;;;5078121;28;20040;-83
2023/01/16 08:15:35;;;;;;;2.17;0.40;;;4.80;99.90;;;;;;5067497;28;20405;-84
2023/01/16 08:18:01;;;;;;;1.20;0.50;;;4.90;99.90;;;;;;5086931;28;20052;-81
2023/01/16 08:20:27;;;;;;;1.88;0.40;;;4.90;99.90;;;;;;5091501;28;20412;-81
2023/01/16 08:22:55;;;;;;;3.33;0.40;;;4.90;99.90;;;;;;5080660;28;20048;-81
2023/01/16 08:25:23;;;;;;;1.52;0.55;;;5.10;99.90;;;;;;5085162;28;20040;-81
2023/01/16 08:27:49;;;;;;;5.38;0.43;;;5.10;99.90;;;;;;5093490;28;20457;-83
2023/01/16 08:30:17;;;;;;;4.45;1.80;;;5.20;99.90;;;;;;5091446;28;20025;-83
2023/01/16 08:32:43;;;;;;;2.92;0.63;;;5.20;99.90;;;;;;5061707;28;20047;-84
2023/01/16 08:35:10;;;;;;;4.85;0.57;;;5.30;99.90;;;;;;5086417;28;20041;-83
2023/01/16 08:37:36;;;;;;;1.50;0.60;;;5.40;99.90;;;;;;5090017;28;20036;-82
2023/01/16 08:40:04;;;;;;;3.72;1.75;;;5.30;99.90;;;;;;5084846;28;20090;-84
2023/01/16 08:53:32;;;;;;;4.60;0.85;;;5.20;99.90;;;;;;5076051;28;20048;-82
2023/01/16 08:55:58;;;;;;;2.05;0.30;;;5.20;99.90;;;;;;5073712;28;20037;-82
2023/01/16 08:58:25;;;;;;;1.77;0.50;;;5.10;99.90;;;;;;5084849;28;20024;-80
2023/01/16 09:00:53;;;;;;;2.88;0.40;;;5.00;99.90;;;;;;5076905;28;20040;-78
2023/01/16 09:03:19;;;;;;;1.40;0.50;;;4.90;99.90;;;;;;5083912;28;20047;-78
2023/01/16 09:05:45;;;;;;;0.93;0.50;;;4.80;1.00;;;;;;5090744;28;20039;-77
2023/01/16 09:08:12;;;;;;;2.40;0.47;;;4.80;1.00;;;;;;5078076;28;20032;-80
2023/01/16 09:10:38;;;;;;;1.42;0.50;;;4.80;1.00;;;;;;5093614;28;20044;-80
2023/01/16 09:15:49;;;;;;;3.83;0.90;;;4.70;1.00;;;;;;5087593;28;20055;-76
2023/01/16 09:18:15;;;;;;;4.80;1.92;;;4.70;1.00;;;;;;5066454;28;20060;-77
2023/01/16 09:20:42;;;;;;;5.63;3.22;;;4.70;1.00;;;;;;5065200;28;20044;-80
2023/01/16 09:23:08;;;;;;;6.38;2.95;;;4.70;1.00;;;;;;5070285;28;20048;-77
2023/01/16 09:25:34;;;;;;;5.30;3.13;;;4.70;1.00;;;;;;5070199;28;20072;-77
2023/01/16 09:28:00;;;;;;;4.18;1.00;;;4.70;1.00;;;;;;5056617;28;20025;-77
2023/01/16 09:30:27;;;;;;;23.55;10.63;;;4.70;1.00;;;;;;5049557;28;20044;-77
2023/01/16 09:32:54;;;;;;;16.70;6.32;;;4.70;1.00;;;;;;5062350;28;20029;-77
2023/01/16 09:35:20;;;;;;;8.20;3.53;;;4.70;1.00;;;;;;5065374;28;20040;-76
2023/01/16 09:37:46;;;;;;;33.97;16.17;;;4.70;1.00;;;;;;5062184;28;20051;-76
2023/01/16 09:40:21;;;;;;;7.38;2.10;;;4.70;1.00;;;;;;5042754;28;20032;-78
2023/01/16 09:45:46;;;;;;;19.88;9.77;;;4.70;1.00;;;;;;5061417;28;20048;-77
2023/01/16 09:48:28;;;;;;;15.57;7.18;;;4.70;1.00;;;;;;5065067;28;20401;-77
2023/01/16 09:51:02;;;;;;;69.05;32.70;;;4.80;1.00;;;;;;5072582;28;20032;-80
2023/01/16 09:59:21;;;;;;;10.48;5.10;;;4.90;1.00;;;;;;5052968;28;20033;-77
2023/01/16 10:01:57;;;;;;;13.27;5.03;;;4.80;1.00;;;;;;5042022;28;20044;-81
2023/01/16 10:04:27;;;;;;;46.88;21.50;;;4.90;1.00;;;;;;5054540;28;20033;-79
2023/01/16 10:07:02;;;;;;;16.65;6.75;;;4.90;1.00;;;;;;5059938;28;20477;-80
2023/01/16 10:09:46;;;;;;;6.53;2.72;;;4.80;1.00;;;;;;5071822;28;20044;-77
2023/01/16 10:12:14;;;;;;;3.80;1.90;;;4.80;1.00;;;;;;5073399;28;20036;-76
2023/01/16 10:15:12;;;;;;;15.48;7.25;;;4.80;1.00;;;;;;5051120;28;20045;-78
2023/01/16 10:17:54;;;;;;;14.20;8.30;;;4.70;1.00;;;;;;5044154;28;20052;-77
2023/01/16 10:20:48;;;;;;;15.27;9.10;;;4.70;1.00;;;;;;5071601;28;20028;-80
2023/01/16 10:23:31;;;;;;;11.68;6.07;;;4.60;1.00;;;;;;5066646;28;20041;-76
2023/01/16 10:26:16;;;;;;;19.65;8.82;;;4.60;1.00;;;;;;5054122;28;20033;-76
2023/01/16 10:29:06;;;;;;;17.90;6.93;;;4.60;1.00;;;;;;5053470;28;20036;-81
2023/01/16 10:31:58;;;;;;;28.48;14.32;;;4.50;1.00;;;;;;5060091;28;20025;-81
2023/01/16 10:34:34;;;;;;;23.10;10.98;;;4.40;1.00;;;;;;5054171;28;20561;-78
2023/01/16 10:37:02;;;;;;;7.03;3.10;;;4.40;1.00;;;;;;5059760;28;20036;-76
2023/01/16 10:39:34;;;;;;;3.22;1.13;;;4.40;1.00;;;;;;5036315;28;20367;-77
2023/01/16 10:50:38;;;;;;;20.58;10.52;;;4.20;1.00;;;;;;5034003;28;20037;-81
2023/01/16 10:53:06;;;;;;;5.68;2.53;;;4.20;1.00;;;;;;5053283;28;20033;-80
2023/01/16 10:55:35;;;;;;;3.45;1.70;;;4.20;1.00;;;;;;5053654;28;20037;-81
2023/01/16 10:58:23;;;;;;;3.10;1.10;;;4.30;1.00;;;;;;5048335;28;20426;-79
2023/01/16 11:00:50;;;;;;;1.52;0.60;;;4.20;1.00;;;;;;5034245;28;20040;-80
2023/01/16 11:03:27;;;;;;;3.10;1.42;;;4.20;1.00;;;;;;5055090;28;20028;-83
2023/01/16 11:06:08;;;;;;;8.75;3.33;;;4.30;1.00;;;;;;5053867;28;20527;-84
2023/01/16 11:08:35;;;;;;;4.00;2.13;;;4.30;1.00;;;;;;5053229;28;20033;-83
2023/01/16 11:11:01;;;;;;;4.00;1.30;;;4.30;1.00;;;;;;5036369;28;20047;-84
2023/01/16 11:19:31;;;;;;;9.25;3.78;;;4.30;1.00;;;;;;5046186;28;20045;-83
2023/01/16 11:22:09;;;;;;;7.93;3.80;;;4.40;1.00;;;;;;5052751;28;20037;-83
2023/01/16 11:24:39;;;;;;;9.70;5.07;;;4.40;1.00;;;;;;5037044;28;20047;-83
2023/01/16 11:27:13;;;;;;;9.15;5.20;;;4.50;1.00;;;;;;5058447;28;20047;-75
2023/01/16 11:29:42;;;;;;;12.68;6.72;;;4.70;1.00;;;;;;5056066;28;20060;-83
2023/01/16 11:32:13;;;;;;;37.53;20.02;;;4.70;1.00;;;;;;5061577;28;20029;-81
2023/01/16 11:34:45;;;;;;;20.23;10.10;;;4.80;1.00;;;;;;5039044;28;20614;-83
2023/01/16 11:37:14;;;;;;;3.97;1.23;;;4.80;1.00;;;;;;5035021;28;20045;-81
2023/01/16 11:39:41;;;;;;;7.85;4.40;;;4.90;1.00;;;;;;5051508;28;20488;-81
2023/01/16 11:47:50;;;;;;;5.30;1.77;;;5.00;1.00;;;;;;5067343;28;20048;-84
2023/01/16 11:50:32;;;;;;;2.97;1.73;;;5.20;1.00;;;;;;5051723;28;20036;-80
2023/01/16 11:52:59;;;;;;;4.53;2.25;;;5.30;1.00;;;;;;5047692;28;20026;-79
2023/01/16 11:55:52;;;;;;;2.22;0.80;;;5.40;1.00;;;;;;5059403;28;20040;-83
2023/01/16 11:58:35;;;;;;;7.03;3.83;;;5.40;1.00;;;;;;5039692;28;20036;-83
2023/01/16 12:01:08;;;;;;;2.60;1.33;;;5.50;1.00;;;;;;5035420;28;20040;-80
2023/01/16 12:03:37;;;;;;;2.67;1.23;;;5.50;1.00;;;;;;5051764;28;20032;-82
2023/01/16 12:06:27;;;;;;;2.75;1.23;;;5.60;1.00;;;;;;5033809;28;20556;-83
2023/01/16 12:08:57;;;;;;;3.35;1.30;;;5.70;1.00;;;;;;5056526;28;20029;-84
2023/01/16 12:11:42;;;;;;;5.82;2.33;;;5.70;1.00;;;;;;5076563;28;20040;-84
2023/01/16 12:14:30;;;;;;;5.50;2.63;;;5.80;1.00;;;;;;5079500;28;20036;-91
2023/01/16 12:17:24;;;;;;;6.15;4.65;;;5.80;1.00;;;;;;5069307;28;20040;-85
2023/01/16 12:20:08;;;;;;;5.97;3.72;;;5.90;1.00;;;;;;5076958;28;20032;-92
2023/01/16 12:22:34;;;;;;;3.72;1.88;;;5.90;1.00;;;;;;5077043;28;20029;-88
2023/01/16 12:25:37;;;;;;;5.70;1.05;;;6.00;1.00;;;;;;5090238;28;20054;-86
2023/01/16 12:28:33;;;;;;;2.45;1.25;;;6.10;99.90;;;;;;5067646;28;20048;-87
2023/01/16 12:31:30;;;;;;;8.60;4.13;;;6.30;99.90;;;;;;5091165;28;20032;-82
2023/01/16 12:34:15;;;;;;;3.97;1.63;;;6.40;99.90;;;;;;5090427;28;20441;-82
2023/01/16 12:37:00;;;;;;;2.50;1.15;;;6.50;99.90;;;;;;5074909;28;20385;-83
2023/01/16 12:39:43;;;;;;;3.03;1.15;;;6.60;99.90;;;;;;5084183;28;20035;-82
2023/01/16 12:45:32;;;;;;;4.35;0.77;;;6.80;99.90;;;;;;5078269;28;20047;-81
2023/01/16 12:48:32;;;;;;;1.65;0.60;;;6.90;99.90;;;;;;5070429;28;20036;-80
2023/01/16 12:51:30;;;;;;;2.95;0.85;;;7.00;99.90;;;;;;5069898;28;20465;-80
2023/01/16 12:54:22;;;;;;;1.65;0.77;;;7.00;99.90;;;;;;5081760;28;20035;-76
2023/01/16 12:57:07;;;;;;;;;;;7.10;99.90;;;;;;5083320;28;20029;-80
2023/01/16 12:59:38;;;;;;;2.67;1.33;;;7.00;99.90;;;;;;5088334;28;19920;-77
2023/01/16 13:02:27;;;;;;;1.80;0.70;;;7.00;99.90;;;;;;5087724;28;20028;-78
2023/01/16 13:05:01;;;;;;;6.15;0.60;;;7.00;99.90;;;;;;5073090;28;20045;-85
2023/01/16 13:07:37;;;;;;;2.40;1.08;;;7.00;99.90;;;;;;5072550;28;20048;-82
2023/01/16 13:15:45;;;;;;;5.78;3.05;;;7.00;99.90;;;;;;5077436;28;20039;-81
2023/01/16 13:18:28;;;;;;;7.40;3.70;;;7.00;99.90;;;;;;5086452;28;20052;-83
2023/01/16 13:20:58;;;;;;;9.48;4.82;;;7.00;99.90;;;;;;5081416;28;20036;-81
2023/01/16 13:23:41;;;;;;;5.32;2.15;;;6.90;99.90;;;;;;5082818;28;20476;-78
2023/01/16 13:26:13;;;;;;;5.28;2.20;;;6.90;99.90;;;;;;5094335;28;20036;-78
2023/01/16 13:28:53;;;;;;;2.00;0.65;;;6.80;99.90;;;;;;5082946;28;20037;-80
2023/01/16 13:31:32;;;;;;;1.08;0.57;;;6.70;99.90;;;;;;5075405;28;20037;-82
2023/01/16 13:34:14;;;;;;;8.63;2.10;;;6.60;99.90;;;;;;5079686;28;20393;-78
2023/01/16 13:37:00;;;;;;;3.15;1.25;;;6.50;1.00;;;;;;5082717;28;20047;-80
2023/01/16 13:39:40;;;;;;;1.10;0.60;;;6.40;1.00;;;;;;5081236;28;20032;-80
2023/01/16 13:42:10;;;;;;;2.05;0.93;;;6.40;1.00;;;;;;5096247;28;20039;-79
2023/01/16 13:47:30;;;;;;;1.27;0.60;;;6.40;1.00;;;;;;5106370;28;20033;-80
2023/01/16 13:50:13;;;;;;;3.22;1.48;;;6.40;1.00;;;;;;5091030;28;20029;-79
2023/01/16 13:52:42;;;;;;;3.00;0.88;;;6.30;1.00;;;;;;5086242;28;20055;-79
2023/01/16 13:55:43;;;;;;;3.63;0.50;;;6.30;1.00;;;;;;5081952;28;20044;-78
2023/01/16 13:58:17;;;;;;;3.50;0.95;;;6.30;1.00;;;;;;5076506;28;20481;-79
2023/01/16 14:00:44;;;;;;;2.13;0.77;;;6.40;1.00;;;;;;5086304;28;20024;-79
2023/01/16 14:03:59;;;;;;;0.93;0.40;;;6.40;1.00;;;;;;5080856;28;20342;-80
2023/01/16 14:06:26;;;;;;;0.98;0.47;;;6.50;99.90;;;;;;5077404;28;20397;-79
2023/01/16 14:09:18;;;;;;;1.58;0.60;;;6.50;99.90;;;;;;5090432;28;20039;-89
2023/01/16 14:11:59;;;;;;;0.80;0.52;;;6.60;99.90;;;;;;5075401;28;20040;-78
2023/01/16 14:17:49;;;;;;;0.65;0.30;;;6.60;99.90;;;;;;5064794;28;20056;-82
2023/01/16 14:20:36;;;;;;;3.05;0.52;;;6.60;99.90;;;;;;5038168;28;20036;-81
2023/01/16 14:25:58;;;;;;;1.30;0.40;;;6.70;99.90;;;;;;5042559;28;20048;-79
2023/01/16 14:28:27;;;;;;;1.60;0.70;;;6.70;99.90;;;;;;5049059;28;20037;-80
2023/01/16 14:30:53;;;;;;;0.75;0.30;;;6.70;99.90;;;;;;5050225;28;20052;-83
2023/01/16 14:33:19;;;;;;;0.77;0.30;;;6.70;99.90;;;;;;5046908;28;20045;-79
2023/01/16 14:35:51;;;;;;;0.93;0.38;;;6.80;99.90;;;;;;5056950;28;20398;-78
2023/01/16 14:38:20;;;;;;;1.27;0.35;;;6.80;99.90;;;;;;5068039;28;20029;-82
2023/01/16 14:55:46;;;;;;;1.13;0.30;;;6.80;99.90;;;;;;5053558;28;20037;-81
2023/01/16 14:58:20;;;;;;;1.05;0.47;;;6.80;99.90;;;;;;5058987;28;20037;-80
2023/01/16 15:00:49;;;;;;;2.90;0.85;;;6.80;99.90;;;;;;5037982;28;20040;-77